Aérodrome :
LOGIN :

S'inscrire | Disclaimer

   EN    FR    IT 

 










Légende :    VFR   VFR Marginal   IFR   IFR Intensif   IFR Très Intensif
Visi : 
Plafond : 
>= 8 km
>= 3000ft
5 à 8 km
1000 à 3000 ft
1500m à 5 km
500 à 1000 ft
800 à 1500m
200 à 500 ft
< 800m
< 200 ft
Symboles :   Orages  Brouillard  Fortes neiges  Fortes précipitations  Vent > 20 kt
SIGMETs :   Divers  Orages  Givrage  Turbulence  Onde Orograph.  Cendres Volcan.







- Altitude de l'aérodrome : 2265 ft
- Code IATA : CZL


DABC - Mohamed Boudiaf Int. Constantine

DERNIER METAR :
  • 270400Z 22006KT 9999 TS FEW030CB SCT100 20/11 Q1017

METARs EXPIRÉS :
  • 270330Z 33002KT 9999 TS FEW030CB SCT100 20/10 Q1016
  • 270300Z 20013KT 9999 -TSRA FEW030CB SCT100 21/10 Q1015
  • 270230Z 24002KT 9999 TS FEW030CB SCT100 21/10 Q1017
  • 270200Z 24009KT 9999 TS FEW030CB SCT100 21/10 Q1017
  • 270130Z 27003KT 9999 FEW030CB SCT100 20/10 Q1016

TAF TAF DABC
Valide du 27 à 00h jusqu'au 28 à 00h UTC


262300Z 2700/2724 30008KT 9999 FEW026CB SCT100
TEMPO 2701/2712 3000 -TSRA BKN015
BECMG 2708/2710 05012KT
Pas de NOTAMs connus pour ce terrain.
1 SIGMET publié pour la FIR Alger (DAAA) :
 
Orages noyés dans la masse
COR DAAA SIGMET 1 VALID 270100/270400 DAMM
DAAA ALGIERS FIR ISOL EMBD TS OBS AND FCST WI N3644 E00255 - N3710 E00425 - N3659 E00612 - N3621 E00741 - N3523 E00659 - N3536 E00442 - N3608 E00246 - N3644 E00255 TOP FL300 MOV NE=



MET'MAP, la Météo Aéronautique d'un coup d'oeil ! - Copyright ORBIFLY Décembre 2007 - Disclaimer

ORBIFLY MET'MAP TEAM :

Programmation & Développement : Alexandra Zaïnal
Conception & Développement : Baudouin d'Aumeries
Co-Programmation & Développement : Marc-Olivier Méhu
Soutien technique & logistique : Manuel Goepfert

Contact : metmap@orbifly.com




SOURCES & CREDITS :

   NOAA